Time;durP1;ratioP1;P1;durP2;ratioP2;P2;SDS_P1;SDS_P2;PMS_P1;PMS_P2;Temp;Humidity;BMP_temperature;BMP_pressure;BME280_temperature;BME280_humidity;BME280_pressure;Samples;Min_cycle;Max_cycle;Signal;HPM_P1;HPM_P2
2023/12/16 00:01:30;;;;;;;42.90;20.20;;;;;;;3.53;90.78;101774.97;131882;1251;108050;-86
2023/12/16 00:04:36;;;;;;;40.30;19.00;;;;;;;3.53;90.71;101770.95;131630;1251;106590;-86
2023/12/16 00:07:42;;;;;;;39.10;19.70;;;;;;;3.60;90.79;101772.55;131594;1265;108222;-86
2023/12/16 00:10:47;;;;;;;39.20;20.00;;;;;;;3.67;91.00;101775.77;131640;1256;109376;-86
2023/12/16 00:13:54;;;;;;;41.20;20.70;;;;;;;3.61;91.90;101786.09;131657;1256;106787;-86
2023/12/16 00:17:00;;;;;;;44.40;21.00;;;;;;;3.50;92.34;101793.95;131647;1256;107314;-86
2023/12/16 00:20:07;;;;;;;43.20;19.20;;;;;;;3.44;91.70;101791.05;131544;1255;108437;-87
2023/12/16 00:23:13;;;;;;;40.60;20.00;;;;;;;3.46;92.30;101793.62;131458;1256;107791;-87
2023/12/16 00:26:18;;;;;;;42.80;19.70;;;;;;;3.42;92.70;101796.96;131490;1256;109469;-87
2023/12/16 00:29:24;;;;;;;38.40;19.60;;;;;;;3.50;92.07;101795.02;131741;1253;107554;-87
2023/12/16 00:32:29;;;;;;;40.10;19.20;;;;;;;3.56;92.04;101788.27;131759;1253;107647;-87
2023/12/16 00:35:35;;;;;;;41.80;19.90;;;;;;;3.61;92.36;101790.31;131732;1255;107125;-87
2023/12/16 00:38:41;;;;;;;41.20;19.90;;;;;;;3.56;92.78;101781.53;131659;1256;107162;-87
2023/12/16 00:41:46;;;;;;;41.00;19.00;;;;;;;3.50;92.81;101787.27;131663;1253;108765;-86
2023/12/16 00:44:52;;;;;;;41.90;19.20;;;;;;;3.47;93.02;101790.02;131679;1253;107819;-86
2023/12/16 00:47:58;;;;;;;39.40;18.40;;;;;;;3.48;92.71;101792.11;131597;1256;108676;-86
2023/12/16 00:51:04;;;;;;;43.70;20.20;;;;;;;3.57;93.06;101800.52;131489;1255;108464;-86
2023/12/16 00:54:11;;;;;;;41.70;19.70;;;;;;;3.62;92.85;101798.15;131630;1255;108716;-86
2023/12/16 00:57:16;;;;;;;44.30;20.60;;;;;;;3.67;92.85;101793.19;131587;1256;107507;-87
2023/12/16 01:00:22;;;;;;;46.20;20.50;;;;;;;3.71;92.93;101791.08;131540;1252;107139;-86
2023/12/16 01:03:28;;;;;;;43.90;20.00;;;;;;;3.71;92.79;101802.49;131768;1256;107597;-86
2023/12/16 01:06:33;;;;;;;45.50;19.40;;;;;;;3.72;92.79;101796.83;131588;1251;108655;-87
2023/12/16 01:09:39;;;;;;;45.80;20.00;;;;;;;3.74;92.79;101795.85;131546;1254;107795;-87
2023/12/16 01:12:45;;;;;;;44.10;19.40;;;;;;;3.72;92.72;101793.14;131668;1256;108399;-87
2023/12/16 01:15:51;;;;;;;35.60;17.10;;;;;;;3.76;92.90;101794.68;131555;1256;106441;-86
2023/12/16 01:18:57;;;;;;;43.30;19.60;;;;;;;3.82;92.80;101797.61;131514;1256;106650;-86
2023/12/16 01:22:02;;;;;;;38.80;18.30;;;;;;;3.84;92.86;101804.54;131601;1255;107689;-86
2023/12/16 01:25:09;;;;;;;41.50;20.10;;;;;;;3.81;93.31;101797.98;131449;1256;108301;-86
2023/12/16 01:28:15;;;;;;;37.70;19.30;;;;;;;3.72;93.46;101798.38;131666;1256;107716;-86
2023/12/16 01:31:21;;;;;;;38.40;18.30;;;;;;;3.68;93.34;101796.84;131515;1256;108748;-85
2023/12/16 01:34:26;;;;;;;37.10;17.10;;;;;;;3.66;93.36;101795.34;131541;1259;106802;-88
2023/12/16 01:37:32;;;;;;;42.20;18.30;;;;;;;3.70;93.18;101788.64;131479;1251;106649;-88
2023/12/16 01:40:39;;;;;;;38.40;17.70;;;;;;;3.80;93.17;101789.25;131626;1256;107599;-88
2023/12/16 01:43:44;;;;;;;40.90;18.40;;;;;;;3.88;93.04;101787.98;131710;1255;105527;-88
2023/12/16 01:46:50;;;;;;;38.50;18.70;;;;;;;3.96;93.09;101789.91;131815;1256;108511;-87
2023/12/16 01:49:56;;;;;;;38.90;18.10;;;;;;;4.00;93.30;101796.78;131564;1260;108398;-86
2023/12/16 01:53:03;;;;;;;39.70;18.80;;;;;;;3.97;93.09;101789.53;131578;1251;108607;-86
2023/12/16 01:56:10;;;;;;;35.30;16.50;;;;;;;3.95;93.08;101793.84;131561;1258;108651;-86
2023/12/16 01:59:16;;;;;;;36.40;17.00;;;;;;;3.93;93.33;101790.73;131548;1256;106552;-86
2023/12/16 02:02:23;;;;;;;37.00;16.20;;;;;;;3.92;93.44;101794.81;131548;1258;107214;-86
2023/12/16 02:05:28;;;;;;;37.40;17.00;;;;;;;3.96;93.36;101790.83;131627;1256;108761;-86
2023/12/16 02:08:34;;;;;;;37.10;18.30;;;;;;;4.01;93.29;101791.27;131502;1264;107680;-86
2023/12/16 02:11:40;;;;;;;36.30;18.10;;;;;;;4.04;93.43;101794.45;131647;1259;108323;-86
2023/12/16 02:14:46;;;;;;;39.90;18.10;;;;;;;4.03;93.43;101795.92;131560;1251;106650;-87
2023/12/16 02:17:51;;;;;;;38.00;19.30;;;;;;;4.05;93.28;101794.42;131682;1251;107656;-86
2023/12/16 02:20:57;;;;;;;38.30;17.70;;;;;;;4.03;93.41;101796.45;131715;1251;165377;-86
2023/12/16 02:24:02;;;;;;;37.20;17.40;;;;;;;4.03;93.44;101798.39;131795;1251;106399;-87
2023/12/16 02:27:08;;;;;;;35.60;16.60;;;;;;;4.05;93.40;101803.36;132877;1256;108653;-86
2023/12/16 02:30:14;;;;;;;33.50;16.50;;;;;;;4.05;93.58;101811.84;131596;1256;109229;-86
2023/12/16 02:33:20;;;;;;;35.40;17.10;;;;;;;4.08;93.69;101816.98;131743;1251;108773;-87
2023/12/16 02:36:26;;;;;;;34.80;16.30;;;;;;;4.16;93.64;101819.06;131633;1251;108528;-87
2023/12/16 02:39:32;;;;;;;38.00;17.20;;;;;;;4.19;93.56;101823.15;131675;1252;107630;-86
2023/12/16 02:42:38;;;;;;;33.70;16.60;;;;;;;4.17;93.55;101820.95;131762;1255;106337;-87
2023/12/16 02:45:43;;;;;;;35.90;16.20;;;;;;;4.13;93.80;101821.31;131659;1251;107415;-87
2023/12/16 02:48:49;;;;;;;32.00;14.80;;;;;;;4.09;93.71;101822.74;131620;1256;106764;-86
2023/12/16 02:51:55;;;;;;;33.80;15.10;;;;;;;4.09;94.13;101820.11;131669;1251;107632;-86
2023/12/16 02:55:00;;;;;;;30.70;15.10;;;;;;;4.11;94.17;101814.75;131595;1263;105735;-86
2023/12/16 02:58:06;;;;;;;31.00;15.80;;;;;;;4.21;94.49;101815.46;131578;1253;109978;-86
2023/12/16 03:01:12;;;;;;;31.80;15.50;;;;;;;4.24;94.36;101815.70;131647;1256;107368;-86
2023/12/16 03:04:17;;;;;;;29.20;14.20;;;;;;;4.22;94.34;101821.58;131648;1251;108895;-86
2023/12/16 03:07:23;;;;;;;26.70;13.10;;;;;;;4.21;94.14;101818.85;131493;1261;108409;-87
2023/12/16 03:10:29;;;;;;;29.10;12.90;;;;;;;4.23;94.13;101820.10;131432;1251;108639;-89
2023/12/16 03:13:35;;;;;;;25.30;12.20;;;;;;;4.24;94.57;101809.51;131479;1256;106564;-86
2023/12/16 03:16:40;;;;;;;28.60;13.80;;;;;;;4.26;94.47;101810.64;131560;1254;105545;-86
2023/12/16 03:19:46;;;;;;;27.10;13.50;;;;;;;4.35;94.31;101807.77;131608;1255;108613;-87
2023/12/16 03:22:52;;;;;;;25.80;13.20;;;;;;;4.41;94.25;101786.88;131744;1256;108681;-86
2023/12/16 03:25:57;;;;;;;26.00;13.70;;;;;;;4.45;94.07;101779.08;131729;1251;107722;-86
2023/12/16 03:29:03;;;;;;;27.10;14.20;;;;;;;4.48;94.04;101775.92;131579;1251;106215;-87
2023/12/16 03:32:09;;;;;;;25.40;11.90;;;;;;;4.49;94.07;101784.16;131682;1256;107492;-87
2023/12/16 03:35:15;;;;;;;25.10;12.90;;;;;;;4.49;94.27;101791.59;131688;1251;107260;-86
2023/12/16 03:38:21;;;;;;;24.40;12.30;;;;;;;4.47;94.36;101795.91;131658;1254;106968;-86
2023/12/16 03:41:26;;;;;;;26.60;12.90;;;;;;;4.50;94.35;101808.26;131621;1257;107432;-87
2023/12/16 03:44:32;;;;;;;26.40;13.00;;;;;;;4.55;94.43;101811.20;131682;1256;108688;-87
2023/12/16 03:47:38;;;;;;;27.40;13.10;;;;;;;4.62;94.47;101817.02;131623;1251;106514;-86
2023/12/16 03:50:44;;;;;;;31.50;14.20;;;;;;;4.67;94.18;101815.89;131848;1255;106659;-87
2023/12/16 03:53:50;;;;;;;29.50;13.90;;;;;;;4.68;94.17;101819.36;131648;1255;107387;-87
2023/12/16 03:56:55;;;;;;;28.30;13.10;;;;;;;4.62;94.50;101821.42;131612;1251;108494;-85
2023/12/16 04:00:01;;;;;;;29.40;12.70;;;;;;;4.52;94.39;101819.41;131507;1251;107471;-87
2023/12/16 04:03:06;;;;;;;25.30;12.70;;;;;;;4.54;94.59;101818.65;131664;1256;107493;-86
2023/12/16 04:06:14;;;;;;;28.20;13.80;;;;;;;4.57;94.66;101816.06;131557;1256;108500;-87
2023/12/16 04:09:20;;;;;;;28.40;13.80;;;;;;;4.58;94.67;101805.06;131473;1251;107782;-85
2023/12/16 04:12:25;;;;;;;31.50;14.80;;;;;;;4.60;94.57;101806.88;131754;1251;106599;-87
2023/12/16 04:15:31;;;;;;;28.70;14.20;;;;;;;4.63;94.76;101811.14;131517;1258;107667;-87
2023/12/16 04:18:37;;;;;;;30.60;13.70;;;;;;;4.57;94.87;101813.92;131619;1257;107604;-86
2023/12/16 04:21:42;;;;;;;24.90;12.20;;;;;;;4.57;94.86;101809.01;131418;1251;108194;-86
2023/12/16 04:24:50;;;;;;;25.10;12.90;;;;;;;4.58;94.75;101802.95;131632;1255;108657;-87
2023/12/16 04:27:55;;;;;;;30.50;13.70;;;;;;;4.60;94.97;101801.94;131705;1251;108753;-87
2023/12/16 04:31:01;;;;;;;46.60;26.00;;;;;;;4.64;94.92;101805.44;131908;1256;105524;-86
2023/12/16 04:34:07;;;;;;;67.60;34.20;;;;;;;4.67;95.19;101808.81;132169;1251;108184;-86
2023/12/16 04:37:12;;;;;;;36.90;19.90;;;;;;;4.72;95.07;101810.35;131912;1251;106955;-86
2023/12/16 04:40:18;;;;;;;48.00;28.70;;;;;;;4.70;94.90;101812.90;131669;1251;108730;-86
2023/12/16 04:43:24;;;;;;;34.40;20.60;;;;;;;4.70;94.93;101822.41;131738;1253;108407;-86
2023/12/16 04:46:29;;;;;;;30.00;15.10;;;;;;;4.68;95.36;101825.52;131782;1257;108598;-86
2023/12/16 04:49:35;;;;;;;34.70;19.50;;;;;;;4.64;95.45;101834.51;131609;1251;107454;-88
2023/12/16 04:52:40;;;;;;;44.40;25.80;;;;;;;4.62;95.95;101834.29;131736;1258;108427;-88
2023/12/16 04:55:46;;;;;;;382.20;149.10;;;;;;;4.64;95.91;101844.27;131850;1251;108547;-88
2023/12/16 04:58:52;;;;;;;233.30;83.70;;;;;;;4.67;95.74;101853.42;131697;1252;106597;-87
2023/12/16 05:01:57;;;;;;;203.00;72.60;;;;;;;4.66;95.92;101859.97;131538;1251;108381;-86
2023/12/16 05:05:03;;;;;;;547.30;197.90;;;;;;;4.63;95.90;101867.70;131448;1256;108723;-86
2023/12/16 05:08:08;;;;;;;197.40;60.90;;;;;;;4.62;96.21;101866.70;131719;1256;108703;-88
2023/12/16 05:11:14;;;;;;;562.50;228.30;;;;;;;4.62;96.00;101864.79;131806;1256;107372;-88
2023/12/16 05:14:20;;;;;;;254.80;90.50;;;;;;;4.66;96.42;101864.20;131661;1255;107873;-86
2023/12/16 05:17:25;;;;;;;295.80;103.30;;;;;;;4.69;96.12;101862.81;131601;1251;107670;-86
2023/12/16 05:20:31;;;;;;;250.90;86.50;;;;;;;4.68;97.09;101861.09;131626;1251;107671;-86
2023/12/16 05:23:36;;;;;;;574.10;236.80;;;;;;;4.67;96.60;101855.17;131557;1251;107612;-86
2023/12/16 05:26:42;;;;;;;214.50;67.40;;;;;;;4.68;96.52;101859.55;131588;1251;107686;-86
2023/12/16 05:29:48;;;;;;;195.40;58.40;;;;;;;4.68;96.68;101864.10;131323;1255;108648;-85
2023/12/16 05:32:53;;;;;;;544.10;166.40;;;;;;;4.65;96.84;101863.92;131518;1267;108523;-86
2023/12/16 05:36:00;;;;;;;411.80;121.30;;;;;;;4.66;97.19;101867.23;131621;1256;108582;-86
2023/12/16 05:39:05;;;;;;;875.00;322.80;;;;;;;4.69;97.22;101876.04;131509;1257;107250;-86
2023/12/16 05:42:11;;;;;;;521.10;176.80;;;;;;;4.72;97.26;101879.60;131499;1255;107831;-86
2023/12/16 05:45:17;;;;;;;253.10;83.70;;;;;;;4.72;97.15;101875.55;131554;1251;107793;-85
2023/12/16 05:48:22;;;;;;;661.10;311.50;;;;;;;4.74;97.24;101876.38;131427;1257;107681;-85
2023/12/16 05:51:28;;;;;;;306.50;112.70;;;;;;;4.72;97.11;101877.16;131534;1266;107571;-85
2023/12/16 05:54:34;;;;;;;116.90;47.50;;;;;;;4.75;97.09;101878.29;131540;1251;107814;-85
2023/12/16 05:57:39;;;;;;;80.10;39.00;;;;;;;4.78;97.27;101884.09;131626;1251;108438;-86
2023/12/16 06:00:45;;;;;;;38.60;18.10;;;;;;;4.84;97.51;101888.91;131643;1251;107008;-86
2023/12/16 06:03:51;;;;;;;43.30;22.90;;;;;;;4.82;97.57;101887.76;131676;1256;107851;-86
2023/12/16 06:06:57;;;;;;;319.40;120.60;;;;;;;4.85;97.41;101884.30;131732;1257;107493;-86
2023/12/16 06:10:02;;;;;;;204.10;65.30;;;;;;;4.84;97.89;101881.83;131766;1252;106228;-86
2023/12/16 06:13:08;;;;;;;411.30;133.00;;;;;;;4.78;98.14;101882.54;131599;1251;108632;-85
2023/12/16 06:16:16;;;;;;;195.80;57.80;;;;;;;4.75;98.30;101882.30;131634;1256;107799;-84
2023/12/16 06:19:22;;;;;;;63.00;23.30;;;;;;;4.77;98.41;101886.80;131167;1256;107852;-84
2023/12/16 06:22:27;;;;;;;371.40;123.10;;;;;;;4.78;98.25;101892.54;131282;1251;107524;-83
2023/12/16 06:25:33;;;;;;;184.60;62.70;;;;;;;4.82;97.94;101890.77;131207;1251;106763;-83
2023/12/16 06:28:39;;;;;;;98.30;38.70;;;;;;;4.84;97.95;101888.55;131266;1251;107597;-85
2023/12/16 06:31:44;;;;;;;519.90;225.50;;;;;;;4.83;98.42;101891.61;131614;1251;107562;-85
2023/12/16 06:34:50;;;;;;;210.50;85.20;;;;;;;4.83;98.22;101888.09;131472;1251;107879;-78
2023/12/16 06:37:56;;;;;;;246.80;98.20;;;;;;;4.85;98.46;101892.02;131038;1256;106102;-80
2023/12/16 06:41:01;;;;;;;134.20;55.00;;;;;;;4.89;98.46;101898.89;131163;1251;108604;-84
2023/12/16 06:44:07;;;;;;;303.70;140.00;;;;;;;4.89;98.47;101900.82;131289;1251;107477;-84
2023/12/16 06:47:12;;;;;;;67.60;32.30;;;;;;;4.93;98.18;101907.18;131298;1251;108706;-84
2023/12/16 06:50:18;;;;;;;79.60;39.30;;;;;;;4.96;98.21;101911.59;131636;1251;107493;-85
2023/12/16 06:53:24;;;;;;;48.30;23.80;;;;;;;5.00;98.38;101915.10;131274;1257;107807;-83
2023/12/16 06:56:30;;;;;;;51.50;26.20;;;;;;;5.03;98.16;101909.48;131244;1251;108717;-85
2023/12/16 06:59:35;;;;;;;31.40;16.30;;;;;;;5.07;98.24;101904.70;131277;1251;106973;-84
2023/12/16 07:02:42;;;;;;;28.80;14.60;;;;;;;5.05;98.42;101905.34;131360;1251;107249;-86
2023/12/16 07:05:47;;;;;;;26.00;12.80;;;;;;;5.03;98.37;101913.73;131452;1256;107770;-85
2023/12/16 07:08:53;;;;;;;25.00;13.40;;;;;;;5.02;98.43;101915.36;131431;1253;108688;-86
2023/12/16 07:11:59;;;;;;;117.00;48.50;;;;;;;5.02;98.47;101917.64;131277;1257;107697;-86
2023/12/16 07:15:05;;;;;;;43.20;18.60;;;;;;;5.06;98.56;101916.58;131712;1251;106739;-88
2023/12/16 07:18:11;;;;;;;29.50;14.50;;;;;;;5.07;98.87;101920.91;131746;1251;107060;-85
2023/12/16 07:21:16;;;;;;;185.50;75.20;;;;;;;5.03;98.89;101927.46;131552;1256;108473;-84
2023/12/16 07:24:22;;;;;;;411.70;144.10;;;;;;;5.03;98.56;101934.20;131451;1257;106141;-84
2023/12/16 07:27:27;;;;;;;206.50;63.30;;;;;;;5.07;98.74;101932.91;131396;1252;107952;-86
2023/12/16 07:30:33;;;;;;;634.10;229.20;;;;;;;5.10;98.57;101932.40;131534;1254;107892;-86
2023/12/16 07:33:39;;;;;;;374.60;110.50;;;;;;;5.15;98.58;101939.06;131592;1251;108459;-85
2023/12/16 07:36:45;;;;;;;368.60;107.00;;;;;;;5.22;98.82;101939.22;131268;1250;107990;-83
2023/12/16 07:39:50;;;;;;;168.50;49.50;;;;;;;5.27;98.33;101936.65;131319;1256;108587;-83
2023/12/16 07:42:56;;;;;;;143.30;44.40;;;;;;;5.29;98.53;101928.83;131277;1266;108623;-83
2023/12/16 07:46:05;;;;;;;133.00;39.50;;;;;;;5.26;98.32;101922.08;131445;1251;105766;-85
2023/12/16 07:49:12;;;;;;;243.20;70.40;;;;;;;5.24;98.73;101914.78;131532;1256;108604;-83
2023/12/16 07:52:19;;;;;;;839.50;278.60;;;;;;;5.26;98.69;101909.23;131584;1256;108655;-83
2023/12/16 07:55:27;;;;;;;356.20;100.80;;;;;;;5.33;98.56;101910.97;131294;1251;108664;-85
2023/12/16 07:58:34;;;;;;;578.50;193.50;;;;;;;5.36;98.45;101905.16;131589;1256;106449;-85
2023/12/16 08:01:39;;;;;;;393.00;112.80;;;;;;;5.39;98.34;101912.23;131332;1254;106327;-86
2023/12/16 08:04:45;;;;;;;150.70;44.30;;;;;;;5.41;98.26;101917.11;131450;1251;106912;-85
2023/12/16 08:07:51;;;;;;;221.10;73.10;;;;;;;5.38;98.11;101920.27;131719;1257;109748;-85
2023/12/16 08:11:04;;;;;;;125.80;46.00;;;;;;;5.34;97.76;101929.80;131416;1253;108695;-86
2023/12/16 08:14:18;;;;;;;96.80;36.80;;;;;;;5.34;98.01;101932.96;131402;1252;108231;-86
2023/12/16 08:17:24;;;;;;;496.40;219.20;;;;;;;5.39;97.83;101933.10;131542;1255;106575;-88
2023/12/16 08:20:29;;;;;;;98.00;37.90;;;;;;;5.48;97.97;101935.97;131452;1252;108665;-86
2023/12/16 08:23:37;;;;;;;86.30;36.90;;;;;;;5.57;97.97;101944.34;131389;1255;108630;-86
2023/12/16 08:26:43;;;;;;;101.40;41.40;;;;;;;5.61;97.47;101952.95;131432;1255;108576;-85
2023/12/16 08:29:49;;;;;;;72.80;31.10;;;;;;;5.58;96.62;101954.67;131360;1255;108833;-84
2023/12/16 08:32:55;;;;;;;83.50;39.40;;;;;;;5.53;97.25;101954.27;131300;1256;107701;-86
2023/12/16 08:36:01;;;;;;;159.40;70.40;;;;;;;5.57;97.01;101959.17;131623;1253;106400;-89
2023/12/16 08:39:07;;;;;;;56.10;23.10;;;;;;;5.63;96.80;101958.13;131513;1254;109045;-87
2023/12/16 08:42:14;;;;;;;230.20;96.80;;;;;;;5.62;96.80;101961.73;131355;1252;107707;-87
2023/12/16 08:45:20;;;;;;;158.60;61.10;;;;;;;5.64;96.67;101951.92;131292;1255;108623;-88
2023/12/16 08:48:31;;;;;;;78.70;32.70;;;;;;;5.78;97.17;101967.63;131275;1253;108295;-88
2023/12/16 08:51:37;;;;;;;110.70;49.50;;;;;;;5.81;96.47;101968.87;131444;1253;107576;-83
2023/12/16 08:54:43;;;;;;;179.70;89.60;;;;;;;5.86;96.56;101962.26;131209;1253;108677;-87
2023/12/16 08:57:49;;;;;;;94.50;48.50;;;;;;;5.95;96.50;101961.80;131064;1253;108957;-90
2023/12/16 09:00:56;;;;;;;61.20;30.60;;;;;;;6.02;96.27;101967.45;131754;1253;106605;-89
2023/12/16 09:04:01;;;;;;;81.80;46.10;;;;;;;6.07;95.90;101972.81;131429;1255;107606;-85
2023/12/16 09:07:07;;;;;;;56.30;32.80;;;;;;;6.13;96.05;101955.23;131245;1251;110358;-85
2023/12/16 09:10:14;;;;;;;68.60;38.40;;;;;;;6.19;95.82;101951.17;131512;1251;107375;-89
2023/12/16 09:13:20;;;;;;;65.80;35.60;;;;;;;6.22;95.95;101953.14;131396;1255;108431;-89
2023/12/16 09:16:25;;;;;;;35.50;16.10;;;;;;;6.29;95.81;101954.52;131567;1256;108705;-83
2023/12/16 09:19:31;;;;;;;34.60;18.40;;;;;;;6.39;95.44;101953.25;131734;1251;108805;-83
2023/12/16 09:22:37;;;;;;;35.20;17.30;;;;;;;6.53;95.72;101949.45;131445;1253;108578;-86
2023/12/16 09:25:42;;;;;;;34.40;17.70;;;;;;;6.66;94.64;101947.84;131381;1255;108644;-83
2023/12/16 09:28:49;;;;;;;38.50;20.60;;;;;;;6.70;94.94;101947.69;131282;1251;107640;-82
2023/12/16 09:31:57;;;;;;;31.20;15.60;;;;;;;6.77;94.78;101943.77;131433;1251;107729;-84
2023/12/16 09:35:06;;;;;;;23.70;12.10;;;;;;;6.79;94.30;101957.59;131345;1252;106632;-83
2023/12/16 09:38:12;;;;;;;28.70;13.70;;;;;;;6.81;94.32;101960.30;131292;1251;106619;-83
2023/12/16 09:41:23;;;;;;;29.00;15.20;;;;;;;6.85;94.76;101956.23;131299;1251;106552;-82
2023/12/16 09:44:33;;;;;;;191.40;89.60;;;;;;;6.93;93.87;101943.71;131296;1256;108659;-84
2023/12/16 09:47:39;;;;;;;85.70;46.40;;;;;;;7.03;93.99;101948.79;131331;1256;108560;-82
2023/12/16 09:50:45;;;;;;;38.00;20.00;;;;;;;7.15;94.17;101946.51;131319;1251;108662;-83
2023/12/16 09:53:51;;;;;;;29.00;15.70;;;;;;;7.24;94.35;101949.70;131506;1251;108459;-82
2023/12/16 09:56:59;;;;;;;39.20;18.70;;;;;;;7.27;93.77;101941.52;131330;1251;107664;-81
2023/12/16 10:00:06;;;;;;;26.60;14.20;;;;;;;7.31;93.98;101939.93;131529;1251;106353;-84
2023/12/16 10:03:15;;;;;;;26.00;15.70;;;;;;;7.33;93.35;101937.34;131312;1251;108292;-86
2023/12/16 10:06:27;;;;;;;23.10;12.70;;;;;;;7.37;93.61;101932.47;131537;1253;107578;-83
2023/12/16 10:09:33;;;;;;;21.30;11.90;;;;;;;7.41;93.48;101930.79;131759;1255;108413;-88
2023/12/16 10:12:39;;;;;;;22.10;11.70;;;;;;;7.47;93.43;101925.66;131482;1255;107752;-87
2023/12/16 10:15:47;;;;;;;20.30;11.10;;;;;;;7.44;93.41;101919.98;131575;1253;107770;-90
2023/12/16 10:18:55;;;;;;;17.00;9.30;;;;;;;7.42;93.37;101913.91;132069;1252;108456;-85
2023/12/16 10:22:01;;;;;;;68.80;34.90;;;;;;;7.35;92.83;101913.32;131931;1251;108592;-87
2023/12/16 10:25:09;;;;;;;25.90;13.20;;;;;;;7.29;92.74;101911.55;131425;1253;109364;-79
2023/12/16 10:28:15;;;;;;;18.70;9.80;;;;;;;7.25;92.34;101918.31;131021;1254;107700;-79
2023/12/16 10:31:22;;;;;;;25.00;11.80;;;;;;;7.23;92.67;101914.50;131175;1256;107686;-79
2023/12/16 10:34:30;;;;;;;90.40;40.70;;;;;;;7.22;93.01;101912.67;131057;1251;108591;-79
2023/12/16 10:37:37;;;;;;;51.70;21.40;;;;;;;7.24;93.18;101914.81;131214;1256;108593;-78
2023/12/16 10:40:43;;;;;;;37.90;15.90;;;;;;;7.24;92.59;101915.02;131722;1252;108561;-81
2023/12/16 10:43:49;;;;;;;27.10;13.50;;;;;;;7.20;92.59;101909.95;132526;1251;107503;-80
2023/12/16 10:46:55;;;;;;;36.80;14.10;;;;;;;7.17;92.72;101911.89;132048;1256;108804;-80
2023/12/16 10:50:03;;;;;;;60.50;27.70;;;;;;;7.14;92.28;101908.34;131022;1266;107089;-80
2023/12/16 10:53:14;;;;;;;53.30;20.20;;;;;;;7.12;92.40;101909.89;131098;1255;108771;-81
2023/12/16 10:56:28;;;;;;;30.10;14.20;;;;;;;7.15;92.62;101904.41;131028;1253;106411;-79
2023/12/16 10:59:39;;;;;;;25.10;13.90;;;;;;;7.18;92.28;101904.20;131207;1256;106814;-79
2023/12/16 11:02:56;;;;;;;58.60;17.10;;;;;;;7.22;92.50;101901.48;131024;1256;107451;-81
2023/12/16 11:06:07;;;;;;;31.00;15.30;;;;;;;7.25;92.47;101900.77;131052;1257;108197;-80
2023/12/16 11:09:17;;;;;;;25.90;14.80;;;;;;;7.26;92.49;101899.48;131063;1257;108023;-80
2023/12/16 11:12:23;;;;;;;22.00;12.20;;;;;;;7.21;92.12;101899.77;130944;1254;106891;-79
2023/12/16 11:15:30;;;;;;;22.50;12.00;;;;;;;7.20;92.28;101890.98;130935;1254;108291;-81
2023/12/16 11:18:37;;;;;;;25.70;14.20;;;;;;;7.22;92.01;101883.27;130972;1252;107662;-81
2023/12/16 11:21:45;;;;;;;71.00;37.50;;;;;;;7.24;92.26;101875.50;131196;1252;106992;-81
2023/12/16 11:24:53;;;;;;;120.00;56.60;;;;;;;7.30;92.40;101878.35;131655;1255;106388;-81
2023/12/16 11:27:59;;;;;;;133.70;60.70;;;;;;;7.31;92.01;101878.70;131230;1253;106576;-81
2023/12/16 11:31:05;;;;;;;157.50;69.50;;;;;;;7.28;91.73;101882.75;131308;1255;106522;-81
2023/12/16 11:34:11;;;;;;;241.00;89.50;;;;;;;7.24;92.16;101884.02;131058;1253;107600;-80
2023/12/16 11:37:36;;;;;;;534.60;214.50;;;;;;;7.25;91.98;101876.54;131564;1253;107677;-80
2023/12/16 11:40:43;;;;;;;575.80;248.80;;;;;;;7.26;91.73;101878.45;131816;1252;108685;-81
2023/12/16 11:43:54;;;;;;;351.40;142.60;;;;;;;7.29;91.73;101876.63;131062;1253;107334;-79
2023/12/16 11:47:00;;;;;;;469.30;212.70;;;;;;;7.28;91.56;101873.36;131260;1256;106696;-79
2023/12/16 11:50:07;;;;;;;602.00;277.90;;;;;;;7.30;91.94;101874.14;131074;1256;107156;-81
2023/12/16 11:53:15;;;;;;;245.00;87.70;;;;;;;7.28;91.68;101872.81;131451;1255;107551;-80
2023/12/16 11:56:21;;;;;;;394.20;159.70;;;;;;;7.21;91.37;101873.07;131064;1255;107440;-82
2023/12/16 11:59:27;;;;;;;620.80;239.80;;;;;;;7.14;91.61;101873.11;131415;1252;107670;-80
2023/12/16 12:02:33;;;;;;;309.70;99.40;;;;;;;7.14;91.35;101873.33;131082;1255;108718;-81
2023/12/16 12:05:39;;;;;;;777.60;299.50;;;;;;;7.16;91.65;101868.09;131287;1252;106663;-80
2023/12/16 12:08:46;;;;;;;296.10;85.40;;;;;;;7.19;91.50;101863.11;131239;1251;108667;-82
2023/12/16 12:11:51;;;;;;;779.40;291.10;;;;;;;7.18;91.25;101858.05;131521;1253;106397;-82
2023/12/16 12:14:57;;;;;;;512.40;171.60;;;;;;;7.19;91.10;101860.63;131250;1256;107754;-81
2023/12/16 12:18:03;;;;;;;655.30;320.10;;;;;;;7.18;91.33;101857.87;131112;1256;107692;-81
2023/12/16 12:21:09;;;;;;;405.50;169.00;;;;;;;7.16;91.54;101861.51;131200;1256;108357;-81
2023/12/16 12:24:15;;;;;;;344.50;140.10;;;;;;;7.15;91.17;101858.39;131109;1254;106195;-80
2023/12/16 12:27:21;;;;;;;323.50;124.90;;;;;;;7.16;91.31;101861.48;131103;1253;107615;-81
2023/12/16 12:30:28;;;;;;;599.60;247.40;;;;;;;7.22;91.23;101854.08;131092;1256;108582;-81
2023/12/16 12:33:35;;;;;;;650.00;289.50;;;;;;;7.23;90.95;101853.66;131066;1253;107641;-79
2023/12/16 12:36:41;;;;;;;630.20;308.50;;;;;;;7.22;90.80;101856.02;131497;1254;107857;-80
2023/12/16 12:39:48;;;;;;;379.40;161.00;;;;;;;7.20;91.04;101853.84;131293;1256;107973;-80
2023/12/16 12:42:55;;;;;;;234.90;96.30;;;;;;;7.17;90.68;101854.72;131696;1251;107456;-81
2023/12/16 12:46:10;;;;;;;165.30;78.20;;;;;;;7.15;91.10;101855.92;131461;1253;107790;-81
2023/12/16 12:49:16;;;;;;;103.80;54.60;;;;;;;7.14;90.70;101845.02;131325;1255;107850;-83
2023/12/16 12:52:34;;;;;;;191.60;106.20;;;;;;;7.12;91.06;101838.23;131821;1251;108729;-80
2023/12/16 12:55:43;;;;;;;116.00;67.80;;;;;;;7.16;91.11;101836.59;131333;1254;107729;-81
2023/12/16 12:58:54;;;;;;;42.80;26.20;;;;;;;7.17;91.27;101828.86;131154;1256;107685;-81
2023/12/16 13:02:00;;;;;;;47.70;31.90;;;;;;;7.21;90.87;101828.30;131509;1251;107541;-79
2023/12/16 13:05:06;;;;;;;39.20;22.40;;;;;;;7.20;90.83;101823.02;131057;1262;106726;-80
2023/12/16 13:08:13;;;;;;;46.60;28.50;;;;;;;7.19;91.03;101812.68;131368;1251;106997;-80
2023/12/16 13:11:19;;;;;;;35.00;21.40;;;;;;;7.19;90.66;101807.50;131346;1255;108728;-79
2023/12/16 13:14:25;;;;;;;637.60;276.50;;;;;;;7.19;91.14;101809.08;131212;1251;107648;-78
2023/12/16 13:17:30;;;;;;;383.20;194.40;;;;;;;7.21;90.88;101804.39;131565;1256;107678;-78
2023/12/16 13:20:38;;;;;;;295.00;140.10;;;;;;;7.21;90.64;101810.79;131415;1251;107336;-78
2023/12/16 13:23:43;;;;;;;345.80;180.50;;;;;;;7.18;90.46;101807.40;131334;1254;109162;-78
2023/12/16 13:26:49;;;;;;;214.40;110.80;;;;;;;7.12;90.26;101804.77;131073;1255;108399;-78
2023/12/16 13:29:55;;;;;;;57.80;31.60;;;;;;;7.06;90.57;101793.41;131060;1251;107535;-81
2023/12/16 13:33:00;;;;;;;154.50;80.40;;;;;;;7.02;90.53;101792.26;131041;1255;107703;-79
2023/12/16 13:36:09;;;;;;;189.20;91.20;;;;;;;7.01;90.58;101796.23;131203;1251;106395;-80
2023/12/16 13:39:15;;;;;;;62.70;31.10;;;;;;;7.03;90.87;101798.56;131245;1255;107159;-79
2023/12/16 13:42:20;;;;;;;103.60;55.90;;;;;;;7.06;90.58;101798.02;131205;1251;107136;-79
2023/12/16 13:45:26;;;;;;;68.30;42.10;;;;;;;7.05;90.72;101794.55;131195;1251;106551;-80
2023/12/16 13:48:32;;;;;;;56.30;33.90;;;;;;;7.08;90.68;101789.75;131162;1253;106406;-79
2023/12/16 13:51:38;;;;;;;64.20;39.50;;;;;;;7.08;90.29;101789.21;131164;1254;107197;-79